Terminal Aerodrome Forecast
Issued by NWS

Home | Current Version | Previous Version | Text Only | Print | Product List | Glossary On
Versions: 1 2 3 4 5 6 7 8 9 10 11 12 13 14 15 16 17 18 19 20 21 22 23 24 25 26 27 28 29 30 31 32 33 34 35 36 37 38 39 40 41 42
000
FTUS45 KGJT 020420 AAA
TAFTEX
TAF AMD
KTEX 020420Z 0204/0224 28006KT P6SM VCSH SCT003 BKN040
      TEMPO 0204/0205 1 1/2SM -SN BR BKN003
     FM020600 26006KT P6SM FEW070
     FM021200 VRB03KT P6SM SKC
     FM021800 26006KT P6SM FEW080=

USA.gov is the U.S. government's official web portal to all federal, state and local government web resources and services.